createdAt,value
2022-11-27T00:01:28.031Z,64.34
2022-11-27T00:03:56.387Z,64.34
2022-11-27T00:06:25.890Z,64.62
2022-11-27T00:08:53.286Z,64.20
2022-11-27T00:11:22.714Z,64.05
2022-11-27T00:13:50.622Z,63.97
2022-11-27T00:16:18.672Z,64.50
2022-11-27T00:18:46.391Z,64.46
2022-11-27T00:21:16.328Z,63.62
2022-11-27T00:23:44.003Z,63.23
2022-11-27T00:26:14.423Z,63.79
2022-11-27T00:28:42.061Z,63.58
2022-11-27T00:31:15.692Z,63.17
2022-11-27T00:33:43.404Z,63.14
2022-11-27T00:36:12.077Z,63.17
2022-11-27T00:38:39.490Z,62.59
2022-11-27T00:41:12.574Z,62.33
2022-11-27T00:43:44.193Z,62.09
2022-11-27T00:46:14.136Z,62.42
2022-11-27T00:48:41.745Z,63.08
2022-11-27T00:51:12.190Z,63.22
2022-11-27T00:53:40.064Z,63.23
2022-11-27T00:56:07.895Z,62.95
2022-11-27T00:58:35.469Z,63.16
2022-11-27T01:01:06.489Z,62.88
2022-11-27T01:03:34.774Z,62.66
2022-11-27T01:06:04.246Z,62.73
2022-11-27T01:08:32.602Z,62.62
2022-11-27T01:11:00.821Z,62.81
2022-11-27T01:13:34.030Z,63.02
2022-11-27T01:16:07.454Z,62.79
2022-11-27T01:18:35.981Z,62.81
2022-11-27T01:21:04.355Z,62.26
2022-11-27T01:23:31.891Z,62.50
2022-11-27T01:26:06.790Z,62.50
2022-11-27T01:28:35.143Z,62.41
2022-11-27T01:31:07.334Z,62.65
2022-11-27T01:33:35.004Z,62.32
2022-11-27T01:36:04.839Z,62.52
2022-11-27T01:38:32.951Z,62.09
2022-11-27T01:41:08.203Z,62.43
2022-11-27T01:43:41.875Z,62.18
2022-11-27T01:46:30.108Z,62.10
2022-11-27T01:49:05.441Z,62.24
2022-11-27T01:51:33.160Z,62.59
2022-11-27T01:54:00.531Z,62.32
2022-11-27T01:56:28.319Z,62.33
2022-11-27T01:58:57.635Z,62.81
2022-11-27T02:01:26.184Z,63.17
2022-11-27T02:03:55.173Z,62.80
2022-11-27T02:06:22.738Z,62.79
2022-11-27T02:08:50.162Z,62.77
2022-11-27T02:11:29.338Z,62.68
2022-11-27T02:14:32.377Z,62.94
2022-11-27T02:17:20.487Z,62.95
2022-11-27T02:20:12.882Z,62.73
2022-11-27T02:22:52.045Z,62.89
2022-11-27T02:25:34.877Z,62.67
2022-11-27T02:28:14.226Z,62.94
2022-11-27T02:30:47.288Z,62.53
2022-11-27T02:33:17.643Z,62.41
2022-11-27T02:35:52.030Z,62.64
2022-11-27T02:38:33.125Z,62.54
2022-11-27T02:41:06.930Z,63.13
2022-11-27T02:43:37.546Z,63.30
2022-11-27T02:46:06.829Z,62.93
2022-11-27T02:48:42.772Z,63.26
2022-11-27T02:51:12.250Z,63.09
2022-11-27T02:53:43.666Z,63.39
2022-11-27T02:56:14.449Z,63.48
2022-11-27T02:58:42.254Z,63.49
2022-11-27T03:01:10.863Z,63.79
2022-11-27T03:03:45.550Z,63.47
2022-11-27T03:06:17.666Z,63.16
2022-11-27T03:09:02.175Z,62.73
2022-11-27T03:11:32.523Z,62.85
2022-11-27T03:14:03.791Z,62.68
2022-11-27T03:16:57.002Z,62.67
2022-11-27T03:19:47.876Z,62.67
2022-11-27T03:22:16.501Z,62.70
2022-11-27T03:24:44.318Z,62.98
2022-11-27T03:27:17.844Z,63.06
2022-11-27T03:29:48.147Z,62.94
2022-11-27T03:32:15.906Z,62.85
2022-11-27T03:34:43.621Z,62.71
2022-11-27T03:37:11.358Z,63.03
2022-11-27T03:39:39.009Z,63.04
2022-11-27T03:42:18.509Z,62.83
2022-11-27T03:45:08.138Z,62.31
2022-11-27T03:47:45.164Z,62.42
2022-11-27T03:50:40.306Z,62.51
2022-11-27T03:53:19.926Z,62.44
2022-11-27T03:56:05.430Z,62.90
2022-11-27T03:58:43.925Z,62.87
2022-11-27T04:01:13.434Z,62.65
2022-11-27T04:03:41.032Z,62.98
2022-11-27T04:06:08.510Z,62.69
2022-11-27T04:08:36.043Z,62.62
2022-11-27T04:11:03.671Z,62.54
2022-11-27T04:13:31.259Z,62.66
2022-11-27T04:16:02.272Z,62.62
2022-11-27T04:18:30.557Z,62.93
2022-11-27T04:20:58.252Z,62.60
2022-11-27T04:23:25.562Z,62.38
2022-11-27T04:25:53.124Z,62.67
2022-11-27T04:28:20.716Z,62.95
2022-11-27T04:30:52.773Z,63.06
2022-11-27T04:33:20.592Z,62.78
2022-11-27T04:35:48.003Z,63.57
2022-11-27T04:38:15.383Z,63.27
2022-11-27T04:40:43.110Z,63.05
2022-11-27T04:43:10.417Z,63.10
2022-11-27T04:45:37.823Z,63.01
2022-11-27T04:48:05.971Z,63.07
2022-11-27T04:50:33.350Z,63.63
2022-11-27T04:53:00.712Z,63.27
2022-11-27T04:55:28.275Z,63.34
2022-11-27T04:57:55.637Z,63.33
2022-11-27T05:00:22.955Z,63.41
2022-11-27T05:02:50.640Z,63.39
2022-11-27T05:05:17.950Z,63.46
2022-11-27T05:07:45.552Z,63.52
2022-11-27T05:10:13.264Z,63.27
2022-11-27T05:12:40.574Z,63.74
2022-11-27T05:15:09.041Z,63.35
2022-11-27T05:17:36.601Z,63.25
2022-11-27T05:20:04.190Z,63.31
2022-11-27T05:22:31.543Z,63.53
2022-11-27T05:24:59.148Z,64.06
2022-11-27T05:27:26.604Z,64.22
2022-11-27T05:29:53.908Z,64.43
2022-11-27T05:32:21.482Z,64.09
2022-11-27T05:34:49.674Z,64.22
2022-11-27T05:37:19.724Z,64.14
2022-11-27T05:39:47.798Z,64.47
2022-11-27T05:42:15.145Z,64.52
2022-11-27T05:44:42.761Z,64.60
2022-11-27T05:47:10.532Z,65.43
2022-11-27T05:49:38.568Z,65.09
2022-11-27T05:52:05.916Z,65.19
2022-11-27T05:54:33.496Z,65.08
2022-11-27T05:57:00.771Z,65.49
2022-11-27T05:59:28.150Z,65.31
2022-11-27T06:01:55.803Z,65.26
2022-11-27T06:04:23.461Z,65.28
2022-11-27T06:06:51.031Z,65.17
2022-11-27T06:09:18.336Z,64.78
2022-11-27T06:11:45.963Z,64.90
2022-11-27T06:14:13.266Z,65.13
2022-11-27T06:16:40.595Z,64.52
2022-11-27T06:19:09.145Z,64.72
2022-11-27T06:21:36.571Z,64.64
2022-11-27T06:24:04.108Z,64.67
2022-11-27T06:26:33.401Z,64.50
2022-11-27T06:29:01.217Z,64.48
2022-11-27T06:31:31.264Z,64.02
2022-11-27T06:33:59.066Z,63.76
2022-11-27T06:36:32.009Z,64.14
2022-11-27T06:39:00.152Z,64.16
2022-11-27T06:41:28.634Z,63.96
2022-11-27T06:43:58.592Z,64.56
2022-11-27T06:46:26.922Z,64.61
2022-11-27T06:48:54.893Z,64.99
2022-11-27T06:51:25.038Z,64.69
2022-11-27T06:53:53.409Z,64.93
2022-11-27T06:56:25.767Z,64.72
2022-11-27T06:58:55.588Z,65.01
2022-11-27T07:01:24.496Z,64.84
2022-11-27T07:03:52.164Z,64.66
2022-11-27T07:06:22.335Z,64.92
2022-11-27T07:08:49.641Z,64.88
2022-11-27T07:11:19.754Z,64.17
2022-11-27T07:13:48.138Z,63.89
2022-11-27T07:16:16.682Z,63.77
2022-11-27T07:18:47.246Z,63.83
2022-11-27T07:21:15.064Z,64.13
2022-11-27T07:23:42.452Z,64.16
2022-11-27T07:26:15.899Z,64.00
2022-11-27T07:28:44.193Z,64.15
2022-11-27T07:31:16.689Z,63.85
2022-11-27T07:33:44.429Z,63.96
2022-11-27T07:36:14.645Z,64.06
2022-11-27T07:38:42.693Z,63.97
2022-11-27T07:41:10.725Z,64.03
2022-11-27T07:43:38.116Z,63.92
2022-11-27T07:46:08.187Z,64.06
2022-11-27T07:48:35.845Z,64.50
2022-11-27T07:51:06.141Z,64.46
2022-11-27T07:53:37.570Z,64.16
2022-11-27T07:56:09.658Z,63.52
2022-11-27T07:58:37.013Z,63.63
2022-11-27T08:01:09.729Z,62.95
2022-11-27T08:03:38.051Z,63.63
2022-11-27T08:06:13.923Z,63.71
2022-11-27T08:08:41.503Z,63.64
2022-11-27T08:11:18.729Z,64.07
2022-11-27T08:13:46.653Z,63.90
2022-11-27T08:16:14.123Z,64.10
2022-11-27T08:18:41.742Z,64.19
2022-11-27T08:21:09.402Z,64.28
2022-11-27T08:23:36.755Z,63.80
2022-11-27T08:26:11.454Z,63.48
2022-11-27T08:28:39.814Z,64.26
2022-11-27T08:31:09.041Z,64.20
2022-11-27T08:33:36.881Z,63.77
2022-11-27T08:36:04.704Z,64.18
2022-11-27T08:38:32.044Z,63.16
2022-11-27T08:41:01.563Z,63.98
2022-11-27T08:43:29.878Z,63.72
2022-11-27T08:45:57.376Z,71.16
2022-11-27T08:48:24.981Z,64.74
2022-11-27T08:50:52.854Z,62.78
2022-11-27T08:53:20.883Z,62.51
2022-11-27T08:55:48.225Z,62.17
2022-11-27T08:58:15.871Z,62.46
2022-11-27T09:00:43.475Z,62.34
2022-11-27T09:03:12.327Z,64.14
2022-11-27T09:05:44.343Z,63.66
2022-11-27T09:08:16.747Z,61.83
2022-11-27T09:10:44.314Z,61.37
2022-11-27T09:13:11.688Z,62.75
2022-11-27T09:15:39.054Z,62.05
2022-11-27T09:18:06.662Z,71.24
2022-11-27T09:20:34.031Z,66.56
2022-11-27T09:23:02.477Z,65.07
2022-11-27T09:25:30.079Z,63.15
2022-11-27T09:27:57.435Z,62.21
2022-11-27T09:30:24.772Z,61.45
2022-11-27T09:32:52.532Z,60.65
2022-11-27T09:35:20.049Z,59.81
2022-11-27T09:37:47.727Z,59.86
2022-11-27T09:40:17.454Z,60.28
2022-11-27T09:43:09.792Z,60.35
2022-11-27T09:45:54.962Z,60.46
2022-11-27T09:48:33.675Z,60.86
2022-11-27T09:51:05.128Z,61.25
2022-11-27T09:56:13.510Z,61.52
2022-11-27T09:58:42.968Z,61.72
2022-11-27T10:01:16.813Z,61.63
2022-11-27T10:03:45.774Z,61.79
2022-11-27T10:06:33.266Z,61.84
2022-11-27T10:09:09.085Z,62.20
2022-11-27T10:11:53.823Z,61.85
2022-11-27T10:14:30.909Z,61.26
2022-11-27T10:17:02.420Z,61.58
2022-11-27T10:19:39.535Z,61.49
2022-11-27T10:22:21.427Z,61.49
2022-11-27T10:25:15.601Z,61.79
2022-11-27T10:30:56.608Z,61.52
2022-11-27T10:33:27.538Z,61.20
2022-11-27T10:35:55.202Z,60.98
2022-11-27T10:38:24.300Z,61.24
2022-11-27T10:41:06.421Z,60.85
2022-11-27T10:43:35.868Z,59.83
2022-11-27T10:46:25.187Z,61.11
2022-11-27T10:48:52.858Z,60.69
2022-11-27T10:51:30.471Z,61.48
2022-11-27T10:53:59.416Z,62.10
2022-11-27T10:56:40.459Z,61.62
2022-11-27T10:59:19.755Z,61.53
2022-11-27T11:01:50.392Z,61.26
2022-11-27T11:04:39.141Z,60.70
2022-11-27T11:07:27.474Z,61.02
2022-11-27T11:09:55.411Z,61.41
2022-11-27T11:12:23.956Z,61.56
2022-11-27T11:15:01.730Z,61.25
2022-11-27T11:17:37.849Z,61.33
2022-11-27T11:20:15.407Z,61.30
2022-11-27T11:22:47.230Z,60.59
2022-11-27T11:25:19.957Z,60.40
2022-11-27T11:27:48.625Z,60.56
2022-11-27T11:30:25.019Z,61.15
2022-11-27T11:32:59.858Z,61.22
2022-11-27T11:35:32.151Z,61.46
2022-11-27T11:38:01.369Z,60.93
2022-11-27T11:40:31.806Z,60.13
2022-11-27T11:43:00.484Z,60.45
2022-11-27T11:45:33.421Z,59.79
2022-11-27T11:48:25.318Z,59.76
2022-11-27T11:51:10.190Z,60.55
2022-11-27T11:53:39.997Z,60.97
2022-11-27T11:56:32.407Z,61.04
2022-11-27T11:59:10.955Z,61.23
2022-11-27T12:01:59.665Z,61.32
2022-11-27T12:04:52.448Z,61.36
2022-11-27T12:07:51.812Z,61.14
2022-11-27T12:10:29.918Z,61.63
2022-11-27T12:13:06.531Z,61.10
2022-11-27T12:15:39.914Z,61.16
2022-11-27T12:18:43.157Z,61.08
2022-11-27T12:21:41.776Z,60.83
2022-11-27T12:24:34.851Z,60.05
2022-11-27T12:27:19.061Z,60.35
2022-11-27T12:29:55.452Z,59.78
2022-11-27T12:32:31.643Z,60.36
2022-11-27T12:35:17.675Z,60.79
2022-11-27T12:38:00.698Z,60.84
2022-11-27T12:40:33.305Z,60.39
2022-11-27T12:43:12.729Z,60.74
2022-11-27T12:46:10.771Z,60.55
2022-11-27T12:48:50.155Z,60.46
2022-11-27T12:51:34.279Z,60.66
2022-11-27T12:54:06.671Z,61.34
2022-11-27T12:56:49.201Z,61.12
2022-11-27T12:59:25.349Z,60.42
2022-11-27T13:02:09.394Z,60.97
2022-11-27T13:04:39.867Z,60.86
2022-11-27T13:07:13.989Z,60.81
2022-11-27T13:09:53.766Z,60.69
2022-11-27T13:12:24.935Z,60.07
2022-11-27T13:15:35.784Z,59.96
2022-11-27T13:18:41.804Z,59.62
2022-11-27T13:21:13.343Z,59.78
2022-11-27T13:23:40.917Z,59.64
2022-11-27T13:26:23.343Z,59.34
2022-11-27T13:28:57.620Z,59.18
2022-11-27T13:31:31.235Z,59.57
2022-11-27T13:34:00.506Z,59.01
2022-11-27T13:36:36.239Z,59.14
2022-11-27T13:39:03.788Z,58.92
2022-11-27T13:41:40.162Z,59.10
2022-11-27T13:44:24.951Z,59.33
2022-11-27T13:46:54.809Z,58.71
2022-11-27T13:49:29.242Z,58.63
2022-11-27T13:52:16.860Z,58.44
2022-11-27T13:54:56.386Z,57.89
2022-11-27T13:57:25.222Z,58.31
2022-11-27T14:00:11.329Z,58.64
2022-11-27T14:02:51.219Z,59.26
2022-11-27T14:05:21.200Z,58.97
2022-11-27T14:07:51.211Z,58.84
2022-11-27T14:10:21.879Z,58.72
2022-11-27T14:13:08.658Z,58.78
2022-11-27T14:15:37.272Z,58.28
2022-11-27T14:18:14.703Z,58.16
2022-11-27T14:20:55.491Z,58.28
2022-11-27T14:23:30.793Z,58.69
2022-11-27T14:26:24.907Z,58.47
2022-11-27T14:28:54.597Z,58.94
2022-11-27T14:31:33.570Z,58.99
2022-11-27T14:34:23.128Z,59.04
2022-11-27T14:36:52.499Z,59.50
2022-11-27T14:39:24.644Z,59.99
2022-11-27T14:41:58.161Z,60.84
2022-11-27T14:44:25.435Z,60.71
2022-11-27T14:46:54.562Z,60.27
2022-11-27T14:49:24.829Z,59.68
2022-11-27T14:51:52.665Z,59.40
2022-11-27T14:54:31.225Z,58.87
2022-11-27T14:56:58.758Z,59.45
2022-11-27T14:59:26.444Z,59.47
2022-11-27T15:02:07.264Z,59.78
2022-11-27T15:04:39.934Z,59.58
2022-11-27T15:07:16.120Z,59.67
2022-11-27T15:09:52.618Z,59.76
2022-11-27T15:12:33.985Z,59.80
2022-11-27T15:15:09.149Z,59.96
2022-11-27T15:17:38.343Z,59.39
2022-11-27T15:20:18.674Z,59.88
2022-11-27T15:22:54.456Z,60.42
2022-11-27T15:26:12.562Z,60.46
2022-11-27T15:28:47.163Z,60.40
2022-11-27T15:31:32.614Z,60.64
2022-11-27T15:34:03.764Z,60.96
2022-11-27T15:36:40.153Z,60.96
2022-11-27T15:39:27.270Z,61.08
2022-11-27T15:42:00.033Z,60.76
2022-11-27T15:44:30.339Z,61.18
2022-11-27T15:46:59.942Z,61.18
2022-11-27T15:49:27.602Z,61.32
2022-11-27T15:51:56.422Z,61.43
2022-11-27T15:54:24.607Z,61.57
2022-11-27T15:56:52.104Z,61.87
2022-11-27T15:59:20.933Z,61.95
2022-11-27T16:01:49.686Z,62.00
2022-11-27T16:04:17.490Z,62.10
2022-11-27T16:06:45.628Z,62.23
2022-11-27T16:09:13.017Z,63.49
2022-11-27T16:11:40.694Z,65.02
2022-11-27T16:14:08.009Z,63.15
2022-11-27T16:16:35.613Z,62.12
2022-11-27T16:19:05.419Z,62.08
2022-11-27T16:21:34.181Z,62.16
2022-11-27T16:24:04.085Z,67.56
2022-11-27T16:26:32.904Z,66.02
2022-11-27T16:29:00.382Z,64.45
2022-11-27T16:31:28.075Z,64.80
2022-11-27T16:33:56.310Z,62.95
2022-11-27T16:36:24.207Z,61.91
2022-11-27T16:38:52.592Z,61.68
2022-11-27T16:41:20.701Z,61.55
2022-11-27T16:43:50.742Z,61.36
2022-11-27T16:46:27.574Z,61.39
2022-11-27T16:48:57.595Z,61.54
2022-11-27T16:51:28.482Z,61.28
2022-11-27T16:53:57.738Z,61.35
2022-11-27T16:56:27.233Z,61.49
2022-11-27T16:59:00.958Z,61.51
2022-11-27T17:01:34.333Z,61.49
2022-11-27T17:04:04.870Z,61.54
2022-11-27T17:06:33.390Z,61.58
2022-11-27T17:09:02.247Z,61.77
2022-11-27T17:11:35.473Z,62.15
2022-11-27T17:14:08.361Z,62.12
2022-11-27T17:16:38.760Z,62.03
2022-11-27T17:19:07.141Z,61.89
2022-11-27T17:21:35.360Z,62.00
2022-11-27T17:24:10.124Z,61.94
2022-11-27T17:26:43.469Z,62.01
2022-11-27T17:29:12.828Z,62.05
2022-11-27T17:31:40.386Z,61.68
2022-11-27T17:34:09.801Z,61.99
2022-11-27T17:36:37.658Z,62.04
2022-11-27T17:39:06.863Z,61.81
2022-11-27T17:41:34.762Z,61.73
2022-11-27T17:44:05.396Z,61.77
2022-11-27T17:46:33.515Z,61.79
2022-11-27T17:49:03.959Z,61.90
2022-11-27T17:51:33.062Z,61.82
2022-11-27T17:54:01.879Z,61.58
2022-11-27T17:56:30.038Z,61.69
2022-11-27T17:58:59.721Z,61.74
2022-11-27T18:01:29.281Z,61.55
2022-11-27T18:04:00.418Z,61.46
2022-11-27T18:06:30.071Z,61.32
2022-11-27T18:08:58.542Z,61.53
2022-11-27T18:11:28.559Z,61.46
2022-11-27T18:13:57.528Z,61.50
2022-11-27T18:16:29.165Z,61.09
2022-11-27T18:18:57.997Z,61.24
2022-11-27T18:21:28.878Z,61.52
2022-11-27T18:27:07.062Z,61.58
2022-11-27T18:29:31.782Z,61.56
2022-11-27T18:31:59.532Z,61.47
2022-11-27T18:34:27.017Z,61.70
2022-11-27T18:36:57.290Z,61.54
2022-11-27T18:39:25.465Z,61.66
2022-11-27T18:41:52.850Z,61.62
2022-11-27T18:44:20.567Z,61.59
2022-11-27T18:46:48.255Z,61.54
2022-11-27T18:49:15.645Z,61.95
2022-11-27T18:51:43.042Z,61.71
2022-11-27T18:54:10.863Z,61.73
2022-11-27T18:56:38.344Z,61.51
2022-11-27T18:59:06.558Z,61.21
2022-11-27T19:01:41.461Z,61.49
2022-11-27T19:04:10.624Z,61.08
2022-11-27T19:06:39.222Z,61.61
2022-11-27T19:09:07.043Z,61.92
2022-11-27T19:11:35.171Z,61.96
2022-11-27T19:14:04.502Z,61.31
2022-11-27T19:16:39.116Z,61.61
2022-11-27T19:19:07.423Z,61.53
2022-11-27T19:21:35.500Z,61.83
2022-11-27T19:24:04.965Z,62.25
2022-11-27T19:26:35.346Z,62.30
2022-11-27T19:29:08.974Z,62.32
2022-11-27T19:31:39.368Z,62.26
2022-11-27T19:34:07.615Z,62.32
2022-11-27T19:36:35.701Z,62.06
2022-11-27T19:39:06.692Z,61.63
2022-11-27T19:41:34.316Z,61.76
2022-11-27T19:44:04.651Z,61.86
2022-11-27T19:46:35.367Z,61.41
2022-11-27T19:49:05.870Z,61.33
2022-11-27T19:51:35.594Z,61.77
2022-11-27T19:54:07.055Z,61.58
2022-11-27T19:56:40.084Z,62.17
2022-11-27T19:59:08.670Z,62.05
2022-11-27T20:01:37.770Z,62.47
2022-11-27T20:04:06.403Z,62.48
2022-11-27T20:06:37.304Z,62.45
2022-11-27T20:09:05.497Z,62.46
2022-11-27T20:11:35.418Z,62.49
2022-11-27T20:14:05.349Z,62.29
2022-11-27T20:16:34.000Z,62.31
2022-11-27T20:19:02.274Z,62.32
2022-11-27T20:21:29.813Z,62.04
2022-11-27T20:23:57.761Z,61.31
2022-11-27T20:26:27.488Z,61.52
2022-11-27T20:28:55.202Z,61.61
2022-11-27T20:31:33.970Z,61.47
2022-11-27T20:34:03.464Z,61.32
2022-11-27T20:36:33.026Z,61.41
2022-11-27T20:39:01.075Z,61.58
2022-11-27T20:41:29.000Z,61.54
2022-11-27T20:43:59.260Z,61.43
2022-11-27T20:46:27.299Z,61.89
2022-11-27T20:48:55.231Z,61.41
2022-11-27T20:51:28.713Z,61.57
2022-11-27T20:53:57.616Z,61.86
2022-11-27T20:56:25.651Z,61.68
2022-11-27T20:58:54.166Z,60.98
2022-11-27T21:01:33.443Z,60.79
2022-11-27T21:04:04.318Z,61.18
2022-11-27T21:06:32.503Z,61.79
2022-11-27T21:09:01.875Z,61.26
2022-11-27T21:11:31.129Z,61.45
2022-11-27T21:14:01.204Z,61.53
2022-11-27T21:16:30.994Z,61.10
2022-11-27T21:19:00.265Z,61.33
2022-11-27T21:21:28.610Z,61.19
2022-11-27T21:23:56.017Z,61.29
2022-11-27T21:26:24.118Z,61.30
2022-11-27T21:28:51.726Z,61.10
2022-11-27T21:31:24.415Z,61.08
2022-11-27T21:33:57.676Z,60.71
2022-11-27T21:36:30.526Z,60.76
2022-11-27T21:38:58.900Z,60.70
2022-11-27T21:41:26.980Z,60.68
2022-11-27T21:43:56.782Z,60.83
2022-11-27T21:46:25.322Z,60.70
2022-11-27T21:48:56.174Z,60.50
2022-11-27T21:51:25.962Z,60.30
2022-11-27T21:53:55.369Z,60.43
2022-11-27T21:56:24.459Z,60.83
2022-11-27T21:58:52.423Z,60.21
2022-11-27T22:01:22.542Z,59.98
2022-11-27T22:03:53.983Z,60.49
2022-11-27T22:06:22.682Z,60.54
2022-11-27T22:08:51.044Z,60.57
2022-11-27T22:11:20.908Z,60.97
2022-11-27T22:13:50.039Z,61.09
2022-11-27T22:16:19.928Z,60.70
2022-11-27T22:18:48.034Z,60.42
2022-11-27T22:21:16.570Z,60.65
2022-11-27T22:23:44.661Z,60.84
2022-11-27T22:26:13.905Z,60.88
2022-11-27T22:28:42.104Z,60.92
2022-11-27T22:31:28.199Z,60.70
2022-11-27T22:33:56.373Z,60.48
2022-11-27T22:36:31.255Z,60.25
2022-11-27T22:39:00.726Z,60.40
2022-11-27T22:41:30.232Z,60.71
2022-11-27T22:44:00.309Z,60.76
2022-11-27T22:46:33.850Z,59.95
2022-11-27T22:49:04.544Z,60.09
2022-11-27T22:51:35.325Z,60.86
2022-11-27T22:54:03.919Z,61.08
2022-11-27T22:56:33.698Z,60.69
2022-11-27T22:59:30.387Z,60.57
2022-11-27T23:01:49.172Z,60.97
2022-11-27T23:04:17.179Z,61.12
2022-11-27T23:06:48.601Z,60.46
2022-11-27T23:09:18.112Z,60.67
2022-11-27T23:11:45.587Z,61.12
2022-11-27T23:14:13.212Z,61.08
2022-11-27T23:16:40.907Z,60.65
2022-11-27T23:19:08.922Z,60.87
2022-11-27T23:21:37.699Z,60.99
2022-11-27T23:24:06.632Z,61.15
2022-11-27T23:26:34.428Z,61.32
2022-11-27T23:29:02.144Z,61.05
2022-11-27T23:31:32.615Z,60.54
2022-11-27T23:34:01.948Z,60.46
2022-11-27T23:36:30.974Z,61.02
2022-11-27T23:39:03.025Z,61.49
2022-11-27T23:41:31.385Z,61.69
2022-11-27T23:43:58.764Z,61.79
2022-11-27T23:46:27.802Z,61.66
2022-11-27T23:48:56.773Z,61.51
2022-11-27T23:51:26.267Z,61.45
2022-11-27T23:53:53.850Z,61.32
2022-11-27T23:56:24.089Z,61.62
2022-11-27T23:58:51.459Z,61.51
